sensor_id;sensor_type;location;lat;lon;timestamp;pressure;altitude;pressure_sealevel;temperature;humidity
70437;BME280;57877;39.750;-104.894;2023-08-08T00:02:21;83931.89;;;23.13;31.82
70437;BME280;57877;39.750;-104.894;2023-08-08T00:04:48;83936.77;;;23.41;31.41
70437;BME280;57877;39.750;-104.894;2023-08-08T00:07:11;83932.29;;;23.56;32.00
70437;BME280;57877;39.750;-104.894;2023-08-08T00:09:36;83929.93;;;23.49;31.88
70437;BME280;57877;39.750;-104.894;2023-08-08T00:12:03;83930.89;;;23.20;31.74
70437;BME280;57877;39.750;-104.894;2023-08-08T00:14:28;83927.89;;;22.97;31.45
70437;BME280;57877;39.750;-104.894;2023-08-08T00:16:53;83922.70;;;23.05;31.74
70437;BME280;57877;39.750;-104.894;2023-08-08T00:19:18;83928.35;;;23.40;30.18
70437;BME280;57877;39.750;-104.894;2023-08-08T00:21:43;83937.83;;;23.16;30.40
70437;BME280;57877;39.750;-104.894;2023-08-08T00:24:08;83938.71;;;23.17;29.65
70437;BME280;57877;39.750;-104.894;2023-08-08T00:26:34;83935.25;;;22.81;30.50
70437;BME280;57877;39.750;-104.894;2023-08-08T00:28:58;83933.24;;;22.97;29.40
70437;BME280;57877;39.750;-104.894;2023-08-08T00:31:24;83935.74;;;23.44;29.32
70437;BME280;57877;39.750;-104.894;2023-08-08T00:33:49;83938.68;;;23.54;29.12
70437;BME280;57877;39.750;-104.894;2023-08-08T00:36:14;83946.96;;;23.62;29.25
70437;BME280;57877;39.750;-104.894;2023-08-08T00:38:39;83944.89;;;23.42;29.10
70437;BME280;57877;39.750;-104.894;2023-08-08T00:41:04;83949.18;;;23.44;29.26
70437;BME280;57877;39.750;-104.894;2023-08-08T00:43:29;83950.81;;;23.45;29.67
70437;BME280;57877;39.750;-104.894;2023-08-08T00:45:54;83953.15;;;23.77;29.53
70437;BME280;57877;39.750;-104.894;2023-08-08T00:48:19;83955.48;;;22.92;30.63
70437;BME280;57877;39.750;-104.894;2023-08-08T00:50:44;83965.06;;;23.65;30.14
70437;BME280;57877;39.750;-104.894;2023-08-08T00:53:09;83976.66;;;23.44;30.36
70437;BME280;57877;39.750;-104.894;2023-08-08T00:55:34;83992.38;;;23.30;30.45
70437;BME280;57877;39.750;-104.894;2023-08-08T00:57:59;84000.72;;;24.08;29.31
70437;BME280;57877;39.750;-104.894;2023-08-08T01:00:24;83991.73;;;24.05;29.64
70437;BME280;57877;39.750;-104.894;2023-08-08T01:02:49;83984.74;;;24.50;29.29
70437;BME280;57877;39.750;-104.894;2023-08-08T01:05:15;83985.35;;;24.24;29.58
70437;BME280;57877;39.750;-104.894;2023-08-08T01:07:47;83990.14;;;23.94;30.08
70437;BME280;57877;39.750;-104.894;2023-08-08T01:10:07;83993.70;;;23.80;30.64
70437;BME280;57877;39.750;-104.894;2023-08-08T01:12:29;83995.54;;;23.18;31.44
70437;BME280;57877;39.750;-104.894;2023-08-08T01:14:55;84005.49;;;23.21;30.73
70437;BME280;57877;39.750;-104.894;2023-08-08T01:17:21;84004.47;;;24.18;30.01
70437;BME280;57877;39.750;-104.894;2023-08-08T01:19:45;83996.27;;;23.96;30.22
70437;BME280;57877;39.750;-104.894;2023-08-08T01:22:16;83981.54;;;23.65;30.33
70437;BME280;57877;39.750;-104.894;2023-08-08T01:24:35;83972.35;;;23.42;30.23
70437;BME280;57877;39.750;-104.894;2023-08-08T01:27:00;83976.20;;;23.52;29.92
70437;BME280;57877;39.750;-104.894;2023-08-08T01:29:25;83982.61;;;23.48;29.79
70437;BME280;57877;39.750;-104.894;2023-08-08T01:31:50;83990.93;;;23.54;29.74
70437;BME280;57877;39.750;-104.894;2023-08-08T01:34:15;83989.90;;;23.51;29.31
70437;BME280;57877;39.750;-104.894;2023-08-08T01:36:44;83982.79;;;23.72;28.81
70437;BME280;57877;39.750;-104.894;2023-08-08T01:39:09;83976.34;;;23.25;29.48
70437;BME280;57877;39.750;-104.894;2023-08-08T01:41:31;83977.20;;;23.71;28.84
70437;BME280;57877;39.750;-104.894;2023-08-08T01:43:55;83978.33;;;23.85;28.40
70437;BME280;57877;39.750;-104.894;2023-08-08T01:46:21;83988.43;;;24.10;28.21
70437;BME280;57877;39.750;-104.894;2023-08-08T01:48:46;83991.65;;;23.97;28.14
70437;BME280;57877;39.750;-104.894;2023-08-08T01:51:10;83992.64;;;24.12;28.22
70437;BME280;57877;39.750;-104.894;2023-08-08T01:53:35;83990.71;;;23.33;28.90
70437;BME280;57877;39.750;-104.894;2023-08-08T01:56:00;83991.20;;;24.00;28.98
70437;BME280;57877;39.750;-104.894;2023-08-08T01:58:25;83992.41;;;23.04;29.53
70437;BME280;57877;39.750;-104.894;2023-08-08T02:00:51;83994.63;;;23.77;29.17
70437;BME280;57877;39.750;-104.894;2023-08-08T02:03:16;84001.07;;;23.68;28.90
70437;BME280;57877;39.750;-104.894;2023-08-08T02:05:41;84010.50;;;24.01;28.97
70437;BME280;57877;39.750;-104.894;2023-08-08T02:08:06;84014.60;;;23.95;29.04
70437;BME280;57877;39.750;-104.894;2023-08-08T02:10:31;84014.66;;;23.67;29.13
70437;BME280;57877;39.750;-104.894;2023-08-08T02:12:56;84017.31;;;23.76;28.95
70437;BME280;57877;39.750;-104.894;2023-08-08T02:15:21;84031.22;;;23.95;29.43
70437;BME280;57877;39.750;-104.894;2023-08-08T02:17:46;84042.78;;;24.23;28.91
70437;BME280;57877;39.750;-104.894;2023-08-08T02:20:11;84049.02;;;23.85;29.49
70437;BME280;57877;39.750;-104.894;2023-08-08T02:22:36;84046.03;;;23.96;29.67
70437;BME280;57877;39.750;-104.894;2023-08-08T02:25:01;84036.58;;;23.94;29.45
70437;BME280;57877;39.750;-104.894;2023-08-08T02:27:26;84030.88;;;24.01;29.35
70437;BME280;57877;39.750;-104.894;2023-08-08T02:29:51;84030.15;;;23.98;29.69
70437;BME280;57877;39.750;-104.894;2023-08-08T02:32:16;84038.47;;;23.87;29.59
70437;BME280;57877;39.750;-104.894;2023-08-08T02:34:41;84038.63;;;23.94;29.51
70437;BME280;57877;39.750;-104.894;2023-08-08T02:37:06;84028.85;;;23.34;30.07
70437;BME280;57877;39.750;-104.894;2023-08-08T02:39:31;84039.83;;;23.77;30.19
70437;BME280;57877;39.750;-104.894;2023-08-08T02:41:56;84029.39;;;23.30;30.69
70437;BME280;57877;39.750;-104.894;2023-08-08T02:44:21;84049.73;;;23.62;30.46
70437;BME280;57877;39.750;-104.894;2023-08-08T02:46:46;84024.72;;;23.44;30.57
70437;BME280;57877;39.750;-104.894;2023-08-08T02:49:11;84001.19;;;23.12;31.85
70437;BME280;57877;39.750;-104.894;2023-08-08T02:51:37;83998.39;;;22.87;32.08
70437;BME280;57877;39.750;-104.894;2023-08-08T02:54:01;84008.43;;;22.90;32.04
70437;BME280;57877;39.750;-104.894;2023-08-08T02:56:27;83996.46;;;22.65;32.26
70437;BME280;57877;39.750;-104.894;2023-08-08T02:58:51;83962.12;;;22.44;32.32
70437;BME280;57877;39.750;-104.894;2023-08-08T03:01:17;83915.74;;;22.21;33.02
70437;BME280;57877;39.750;-104.894;2023-08-08T03:03:42;83924.51;;;21.18;34.03
70437;BME280;57877;39.750;-104.894;2023-08-08T03:06:07;83938.78;;;20.91;34.20
70437;BME280;57877;39.750;-104.894;2023-08-08T03:08:32;83933.92;;;21.12;34.33
70437;BME280;57877;39.750;-104.894;2023-08-08T03:10:57;83944.23;;;20.98;34.42
70437;BME280;57877;39.750;-104.894;2023-08-08T03:13:22;83940.53;;;21.39;33.80
70437;BME280;57877;39.750;-104.894;2023-08-08T03:15:47;83959.45;;;21.78;33.10
70437;BME280;57877;39.750;-104.894;2023-08-08T03:18:12;83967.25;;;20.90;32.89
70437;BME280;57877;39.750;-104.894;2023-08-08T03:20:37;83973.47;;;21.79;32.45
70437;BME280;57877;39.750;-104.894;2023-08-08T03:23:02;83980.38;;;22.37;31.70
70437;BME280;57877;39.750;-104.894;2023-08-08T03:25:27;83987.85;;;22.54;31.44
70437;BME280;57877;39.750;-104.894;2023-08-08T03:27:53;83991.93;;;22.81;30.71
70437;BME280;57877;39.750;-104.894;2023-08-08T03:30:18;83994.44;;;22.69;30.71
70437;BME280;57877;39.750;-104.894;2023-08-08T03:32:43;83991.37;;;22.76;30.64
70437;BME280;57877;39.750;-104.894;2023-08-08T03:35:09;83994.67;;;22.46;30.14
70437;BME280;57877;39.750;-104.894;2023-08-08T03:37:35;84003.47;;;22.40;30.10
70437;BME280;57877;39.750;-104.894;2023-08-08T03:40:00;84004.48;;;22.61;30.09
70437;BME280;57877;39.750;-104.894;2023-08-08T03:42:25;84000.14;;;22.65;29.79
70437;BME280;57877;39.750;-104.894;2023-08-08T03:44:50;84003.64;;;22.91;30.08
70437;BME280;57877;39.750;-104.894;2023-08-08T03:47:15;84007.10;;;22.88;29.44
70437;BME280;57877;39.750;-104.894;2023-08-08T03:49:40;84013.68;;;23.01;30.37
70437;BME280;57877;39.750;-104.894;2023-08-08T03:52:05;84014.65;;;22.76;30.59
70437;BME280;57877;39.750;-104.894;2023-08-08T03:54:30;84021.16;;;22.27;30.85
70437;BME280;57877;39.750;-104.894;2023-08-08T03:56:55;84027.43;;;22.17;31.04
70437;BME280;57877;39.750;-104.894;2023-08-08T03:59:20;84027.08;;;22.43;30.85
70437;BME280;57877;39.750;-104.894;2023-08-08T04:01:45;84028.46;;;22.54;30.93
70437;BME280;57877;39.750;-104.894;2023-08-08T04:04:10;84025.37;;;22.63;30.64
70437;BME280;57877;39.750;-104.894;2023-08-08T04:06:35;84023.17;;;22.76;30.75
70437;BME280;57877;39.750;-104.894;2023-08-08T04:09:00;84021.79;;;22.60;30.35
70437;BME280;57877;39.750;-104.894;2023-08-08T04:11:25;84026.39;;;22.39;30.52
70437;BME280;57877;39.750;-104.894;2023-08-08T04:13:50;84027.78;;;22.47;30.61
70437;BME280;57877;39.750;-104.894;2023-08-08T04:16:15;84028.12;;;22.66;30.40
70437;BME280;57877;39.750;-104.894;2023-08-08T04:18:40;84029.94;;;22.66;30.51
70437;BME280;57877;39.750;-104.894;2023-08-08T04:21:05;84026.41;;;22.58;31.23
70437;BME280;57877;39.750;-104.894;2023-08-08T04:23:30;84022.38;;;22.12;31.29
70437;BME280;57877;39.750;-104.894;2023-08-08T04:25:55;84013.55;;;21.99;31.79
70437;BME280;57877;39.750;-104.894;2023-08-08T04:28:20;84015.55;;;22.10;31.78
70437;BME280;57877;39.750;-104.894;2023-08-08T04:30:45;84014.32;;;21.83;31.25
70437;BME280;57877;39.750;-104.894;2023-08-08T04:33:11;84015.96;;;22.04;30.67
70437;BME280;57877;39.750;-104.894;2023-08-08T04:35:36;84016.81;;;22.01;31.33
70437;BME280;57877;39.750;-104.894;2023-08-08T04:38:00;84017.34;;;21.39;32.40
70437;BME280;57877;39.750;-104.894;2023-08-08T04:40:26;84018.65;;;21.31;32.89
70437;BME280;57877;39.750;-104.894;2023-08-08T04:42:51;84020.20;;;20.94;33.13
70437;BME280;57877;39.750;-104.894;2023-08-08T04:45:16;84017.92;;;21.06;33.41
70437;BME280;57877;39.750;-104.894;2023-08-08T04:47:41;84017.85;;;20.93;33.64
70437;BME280;57877;39.750;-104.894;2023-08-08T04:50:06;84018.00;;;20.98;33.46
70437;BME280;57877;39.750;-104.894;2023-08-08T04:52:31;84015.93;;;21.16;32.84
70437;BME280;57877;39.750;-104.894;2023-08-08T04:54:56;84019.77;;;21.11;32.79
70437;BME280;57877;39.750;-104.894;2023-08-08T04:57:22;84021.02;;;21.56;32.66
70437;BME280;57877;39.750;-104.894;2023-08-08T04:59:48;84020.54;;;21.55;32.56
70437;BME280;57877;39.750;-104.894;2023-08-08T05:02:13;84023.40;;;21.11;32.56
70437;BME280;57877;39.750;-104.894;2023-08-08T05:04:38;84026.05;;;21.24;32.46
70437;BME280;57877;39.750;-104.894;2023-08-08T05:07:03;84027.69;;;21.31;33.35
70437;BME280;57877;39.750;-104.894;2023-08-08T05:09:29;84031.40;;;21.58;32.88
70437;BME280;57877;39.750;-104.894;2023-08-08T05:11:54;84031.53;;;21.42;32.69
70437;BME280;57877;39.750;-104.894;2023-08-08T05:14:19;84031.54;;;21.45;32.85
70437;BME280;57877;39.750;-104.894;2023-08-08T05:16:44;84028.75;;;21.26;32.83
70437;BME280;57877;39.750;-104.894;2023-08-08T05:19:09;84026.16;;;21.45;32.88
70437;BME280;57877;39.750;-104.894;2023-08-08T05:21:35;84024.24;;;21.36;33.12
70437;BME280;57877;39.750;-104.894;2023-08-08T05:24:00;84025.69;;;21.53;33.03
70437;BME280;57877;39.750;-104.894;2023-08-08T05:26:25;84023.83;;;21.46;33.52
70437;BME280;57877;39.750;-104.894;2023-08-08T05:28:50;84022.30;;;21.51;33.47
70437;BME280;57877;39.750;-104.894;2023-08-08T05:31:15;84023.22;;;21.28;33.49
70437;BME280;57877;39.750;-104.894;2023-08-08T05:33:40;84025.28;;;21.42;33.93
70437;BME280;57877;39.750;-104.894;2023-08-08T05:36:05;84022.39;;;21.16;33.63
70437;BME280;57877;39.750;-104.894;2023-08-08T05:38:30;84018.59;;;21.11;33.83
70437;BME280;57877;39.750;-104.894;2023-08-08T05:40:56;84017.94;;;21.28;33.84
70437;BME280;57877;39.750;-104.894;2023-08-08T05:43:20;84019.61;;;21.21;33.79
70437;BME280;57877;39.750;-104.894;2023-08-08T05:45:46;84018.48;;;20.95;33.57
70437;BME280;57877;39.750;-104.894;2023-08-08T05:48:10;84018.48;;;20.66;34.41
70437;BME280;57877;39.750;-104.894;2023-08-08T05:50:36;84020.98;;;20.35;34.10
70437;BME280;57877;39.750;-104.894;2023-08-08T05:53:00;84026.90;;;20.52;33.86
70437;BME280;57877;39.750;-104.894;2023-08-08T05:55:25;84030.90;;;20.48;33.95
70437;BME280;57877;39.750;-104.894;2023-08-08T05:57:50;84030.03;;;20.78;33.57
70437;BME280;57877;39.750;-104.894;2023-08-08T06:00:16;84030.68;;;20.83;33.69
70437;BME280;57877;39.750;-104.894;2023-08-08T06:02:41;84032.45;;;20.55;33.92
70437;BME280;57877;39.750;-104.894;2023-08-08T06:05:07;84034.91;;;20.51;33.87
70437;BME280;57877;39.750;-104.894;2023-08-08T06:07:31;84036.83;;;20.56;34.27
70437;BME280;57877;39.750;-104.894;2023-08-08T06:09:56;84034.89;;;20.52;34.42
70437;BME280;57877;39.750;-104.894;2023-08-08T06:12:21;84038.65;;;20.59;34.45
70437;BME280;57877;39.750;-104.894;2023-08-08T06:14:46;84042.62;;;20.25;34.89
70437;BME280;57877;39.750;-104.894;2023-08-08T06:17:11;84045.72;;;20.07;34.98
70437;BME280;57877;39.750;-104.894;2023-08-08T06:19:36;84046.99;;;19.37;36.32
70437;BME280;57877;39.750;-104.894;2023-08-08T06:22:01;84042.92;;;19.92;35.90
70437;BME280;57877;39.750;-104.894;2023-08-08T06:24:26;84042.24;;;19.95;35.86
70437;BME280;57877;39.750;-104.894;2023-08-08T06:26:51;84046.99;;;20.30;35.75
70437;BME280;57877;39.750;-104.894;2023-08-08T06:29:16;84046.01;;;19.53;36.20
70437;BME280;57877;39.750;-104.894;2023-08-08T06:31:41;84047.16;;;19.72;36.60
70437;BME280;57877;39.750;-104.894;2023-08-08T06:34:06;84051.74;;;19.64;36.60
70437;BME280;57877;39.750;-104.894;2023-08-08T06:36:31;84053.00;;;19.87;36.69
70437;BME280;57877;39.750;-104.894;2023-08-08T06:38:56;84056.52;;;19.77;36.67
70437;BME280;57877;39.750;-104.894;2023-08-08T06:41:21;84059.10;;;19.46;36.68
70437;BME280;57877;39.750;-104.894;2023-08-08T06:43:46;84052.48;;;20.14;36.50
70437;BME280;57877;39.750;-104.894;2023-08-08T06:46:11;84049.15;;;20.31;36.30
70437;BME280;57877;39.750;-104.894;2023-08-08T06:48:36;84051.70;;;19.73;37.64
70437;BME280;57877;39.750;-104.894;2023-08-08T06:51:01;84050.03;;;19.38;38.52
70437;BME280;57877;39.750;-104.894;2023-08-08T06:53:27;84049.67;;;19.18;38.12
70437;BME280;57877;39.750;-104.894;2023-08-08T06:55:51;84046.16;;;19.68;38.05
70437;BME280;57877;39.750;-104.894;2023-08-08T06:58:16;84051.91;;;19.53;37.47
70437;BME280;57877;39.750;-104.894;2023-08-08T07:00:41;84053.82;;;19.50;38.01
70437;BME280;57877;39.750;-104.894;2023-08-08T07:03:06;84056.40;;;19.50;37.94
70437;BME280;57877;39.750;-104.894;2023-08-08T07:05:31;84058.28;;;19.63;37.83
70437;BME280;57877;39.750;-104.894;2023-08-08T07:07:57;84059.90;;;19.80;37.75
70437;BME280;57877;39.750;-104.894;2023-08-08T07:10:22;84057.64;;;19.87;37.56
70437;BME280;57877;39.750;-104.894;2023-08-08T07:12:46;84060.55;;;19.64;38.04
70437;BME280;57877;39.750;-104.894;2023-08-08T07:15:12;84057.83;;;19.69;38.68
70437;BME280;57877;39.750;-104.894;2023-08-08T07:17:37;84056.85;;;19.64;39.15
70437;BME280;57877;39.750;-104.894;2023-08-08T07:20:02;84052.60;;;19.62;38.50
70437;BME280;57877;39.750;-104.894;2023-08-08T07:22:27;84049.21;;;19.53;38.45
70437;BME280;57877;39.750;-104.894;2023-08-08T07:24:52;84050.97;;;19.47;38.49
70437;BME280;57877;39.750;-104.894;2023-08-08T07:27:17;84051.68;;;19.45;38.59
70437;BME280;57877;39.750;-104.894;2023-08-08T07:29:42;84053.01;;;19.48;38.53
70437;BME280;57877;39.750;-104.894;2023-08-08T07:32:07;84052.32;;;19.47;38.49
70437;BME280;57877;39.750;-104.894;2023-08-08T07:34:32;84052.41;;;19.40;38.63
70437;BME280;57877;39.750;-104.894;2023-08-08T07:36:57;84051.64;;;19.72;38.47
70437;BME280;57877;39.750;-104.894;2023-08-08T07:39:22;84049.80;;;19.37;38.61
70437;BME280;57877;39.750;-104.894;2023-08-08T07:41:47;84049.09;;;19.38;38.57
70437;BME280;57877;39.750;-104.894;2023-08-08T07:44:12;84050.16;;;19.32;38.16
70437;BME280;57877;39.750;-104.894;2023-08-08T07:46:37;84050.29;;;19.64;38.47
70437;BME280;57877;39.750;-104.894;2023-08-08T07:49:02;84048.34;;;19.35;38.42
70437;BME280;57877;39.750;-104.894;2023-08-08T07:51:27;84046.60;;;19.24;38.90
70437;BME280;57877;39.750;-104.894;2023-08-08T07:53:53;84045.85;;;19.32;38.70
70437;BME280;57877;39.750;-104.894;2023-08-08T07:56:18;84045.07;;;19.18;38.79
70437;BME280;57877;39.750;-104.894;2023-08-08T07:58:43;84045.84;;;19.14;38.86
70437;BME280;57877;39.750;-104.894;2023-08-08T08:01:08;84049.01;;;19.38;38.98
70437;BME280;57877;39.750;-104.894;2023-08-08T08:03:33;84050.65;;;19.16;39.22
70437;BME280;57877;39.750;-104.894;2023-08-08T08:05:58;84049.49;;;18.32;39.94
70437;BME280;57877;39.750;-104.894;2023-08-08T08:08:23;84044.12;;;18.90;39.68
70437;BME280;57877;39.750;-104.894;2023-08-08T08:10:49;84035.98;;;18.92;39.62
70437;BME280;57877;39.750;-104.894;2023-08-08T08:13:14;84034.31;;;18.83;39.47
70437;BME280;57877;39.750;-104.894;2023-08-08T08:15:39;84036.74;;;18.88;39.69
70437;BME280;57877;39.750;-104.894;2023-08-08T08:18:04;84037.08;;;18.78;39.79
70437;BME280;57877;39.750;-104.894;2023-08-08T08:20:29;84038.25;;;18.48;40.16
70437;BME280;57877;39.750;-104.894;2023-08-08T08:22:54;84035.90;;;18.52;40.37
70437;BME280;57877;39.750;-104.894;2023-08-08T08:25:19;84038.37;;;18.13;40.78
70437;BME280;57877;39.750;-104.894;2023-08-08T08:27:44;84038.69;;;18.14;41.17
70437;BME280;57877;39.750;-104.894;2023-08-08T08:30:10;84031.89;;;18.18;40.89
70437;BME280;57877;39.750;-104.894;2023-08-08T08:32:34;84027.52;;;18.48;40.57
70437;BME280;57877;39.750;-104.894;2023-08-08T08:34:59;84028.77;;;18.54;40.65
70437;BME280;57877;39.750;-104.894;2023-08-08T08:37:24;84030.73;;;18.65;40.43
70437;BME280;57877;39.750;-104.894;2023-08-08T08:39:49;84030.62;;;18.69;40.12
70437;BME280;57877;39.750;-104.894;2023-08-08T08:42:14;84026.93;;;18.40;40.05
70437;BME280;57877;39.750;-104.894;2023-08-08T08:44:41;84020.59;;;18.62;40.24
70437;BME280;57877;39.750;-104.894;2023-08-08T08:47:06;84015.38;;;18.52;40.32
70437;BME280;57877;39.750;-104.894;2023-08-08T08:49:31;84024.40;;;18.79;40.11
70437;BME280;57877;39.750;-104.894;2023-08-08T08:51:54;84028.13;;;18.18;40.91
70437;BME280;57877;39.750;-104.894;2023-08-08T08:54:20;84028.86;;;18.41;40.69
70437;BME280;57877;39.750;-104.894;2023-08-08T08:56:44;84024.22;;;18.54;40.45
70437;BME280;57877;39.750;-104.894;2023-08-08T08:59:09;84020.79;;;18.73;40.31
70437;BME280;57877;39.750;-104.894;2023-08-08T09:01:35;84019.23;;;18.42;40.28
70437;BME280;57877;39.750;-104.894;2023-08-08T09:04:00;84019.16;;;18.30;40.16
70437;BME280;57877;39.750;-104.894;2023-08-08T09:06:25;84010.37;;;18.40;40.59
70437;BME280;57877;39.750;-104.894;2023-08-08T09:08:49;84005.20;;;18.22;40.92
70437;BME280;57877;39.750;-104.894;2023-08-08T09:11:14;84004.48;;;18.08;41.00
70437;BME280;57877;39.750;-104.894;2023-08-08T09:13:40;83994.92;;;17.80;41.51
70437;BME280;57877;39.750;-104.894;2023-08-08T09:16:06;83991.42;;;17.96;41.33
70437;BME280;57877;39.750;-104.894;2023-08-08T09:18:30;83987.68;;;17.91;41.74
70437;BME280;57877;39.750;-104.894;2023-08-08T09:20:54;83984.59;;;17.73;41.96
70437;BME280;57877;39.750;-104.894;2023-08-08T09:23:20;83981.10;;;17.77;41.99
70437;BME280;57877;39.750;-104.894;2023-08-08T09:25:46;83969.93;;;17.68;42.03
70437;BME280;57877;39.750;-104.894;2023-08-08T09:28:12;83961.48;;;17.89;42.49
70437;BME280;57877;39.750;-104.894;2023-08-08T09:30:38;83960.20;;;17.29;43.23
70437;BME280;57877;39.750;-104.894;2023-08-08T09:33:03;83958.69;;;17.23;42.96
70437;BME280;57877;39.750;-104.894;2023-08-08T09:35:29;83956.67;;;17.38;42.66
70437;BME280;57877;39.750;-104.894;2023-08-08T09:37:54;83955.92;;;17.61;42.58
70437;BME280;57877;39.750;-104.894;2023-08-08T09:40:18;83955.54;;;17.67;42.31
70437;BME280;57877;39.750;-104.894;2023-08-08T09:42:43;83957.77;;;17.84;41.69
70437;BME280;57877;39.750;-104.894;2023-08-08T09:45:09;83956.94;;;17.65;41.90
70437;BME280;57877;39.750;-104.894;2023-08-08T09:47:33;83954.54;;;17.37;42.19
70437;BME280;57877;39.750;-104.894;2023-08-08T09:49:59;83953.51;;;17.86;41.67
70437;BME280;57877;39.750;-104.894;2023-08-08T09:52:23;83946.97;;;17.96;41.71
70437;BME280;57877;39.750;-104.894;2023-08-08T09:54:49;83946.05;;;18.03;41.69
70437;BME280;57877;39.750;-104.894;2023-08-08T09:57:14;83941.48;;;18.20;41.41
70437;BME280;57877;39.750;-104.894;2023-08-08T09:59:38;83943.86;;;18.27;41.19
70437;BME280;57877;39.750;-104.894;2023-08-08T10:02:05;83937.56;;;18.05;41.05
70437;BME280;57877;39.750;-104.894;2023-08-08T10:04:28;83936.18;;;17.94;41.23
70437;BME280;57877;39.750;-104.894;2023-08-08T10:06:53;83933.08;;;17.82;41.25
70437;BME280;57877;39.750;-104.894;2023-08-08T10:09:18;83924.93;;;17.84;41.11
70437;BME280;57877;39.750;-104.894;2023-08-08T10:11:44;83921.31;;;18.03;41.34
70437;BME280;57877;39.750;-104.894;2023-08-08T10:14:10;83922.32;;;18.04;41.37
70437;BME280;57877;39.750;-104.894;2023-08-08T10:16:34;83921.64;;;18.02;41.12
70437;BME280;57877;39.750;-104.894;2023-08-08T10:19:00;83921.19;;;18.17;41.09
70437;BME280;57877;39.750;-104.894;2023-08-08T10:21:24;83917.28;;;17.54;41.64
70437;BME280;57877;39.750;-104.894;2023-08-08T10:23:49;83920.24;;;17.50;41.72
70437;BME280;57877;39.750;-104.894;2023-08-08T10:26:19;83923.04;;;17.54;42.02
70437;BME280;57877;39.750;-104.894;2023-08-08T10:28:39;83918.03;;;17.37;42.67
70437;BME280;57877;39.750;-104.894;2023-08-08T10:31:04;83920.47;;;17.26;42.41
70437;BME280;57877;39.750;-104.894;2023-08-08T10:35:58;83912.86;;;17.11;42.88
70437;BME280;57877;39.750;-104.894;2023-08-08T10:38:20;83906.95;;;17.25;42.73
70437;BME280;57877;39.750;-104.894;2023-08-08T10:40:45;83905.73;;;17.37;42.72
70437;BME280;57877;39.750;-104.894;2023-08-08T10:43:12;83905.54;;;17.47;42.59
70437;BME280;57877;39.750;-104.894;2023-08-08T10:45:36;83904.86;;;17.54;42.49
70437;BME280;57877;39.750;-104.894;2023-08-08T10:48:08;83904.77;;;17.43;42.52
70437;BME280;57877;39.750;-104.894;2023-08-08T10:50:25;83899.00;;;17.16;42.63
70437;BME280;57877;39.750;-104.894;2023-08-08T10:52:53;83897.13;;;16.77;43.14
70437;BME280;57877;39.750;-104.894;2023-08-08T10:55:19;83896.51;;;16.60;43.30
70437;BME280;57877;39.750;-104.894;2023-08-08T10:57:41;83894.65;;;16.66;43.85
70437;BME280;57877;39.750;-104.894;2023-08-08T11:02:31;83887.63;;;16.93;43.03
70437;BME280;57877;39.750;-104.894;2023-08-08T11:04:56;83884.22;;;16.56;43.08
70437;BME280;57877;39.750;-104.894;2023-08-08T11:07:20;83886.54;;;17.07;43.08
70437;BME280;57877;39.750;-104.894;2023-08-08T11:09:45;83888.58;;;17.06;42.98
70437;BME280;57877;39.750;-104.894;2023-08-08T11:12:14;83878.56;;;16.71;43.18
70437;BME280;57877;39.750;-104.894;2023-08-08T11:14:35;83870.68;;;17.20;43.03
70437;BME280;57877;39.750;-104.894;2023-08-08T11:17:01;83870.64;;;16.89;43.11
70437;BME280;57877;39.750;-104.894;2023-08-08T11:19:26;83869.59;;;17.31;42.79
70437;BME280;57877;39.750;-104.894;2023-08-08T11:21:52;83866.26;;;16.78;42.84
70437;BME280;57877;39.750;-104.894;2023-08-08T11:24:16;83867.15;;;16.64;42.93
70437;BME280;57877;39.750;-104.894;2023-08-08T11:26:43;83868.38;;;17.01;42.84
70437;BME280;57877;39.750;-104.894;2023-08-08T11:29:06;83867.90;;;16.53;43.00
70437;BME280;57877;39.750;-104.894;2023-08-08T11:31:31;83864.75;;;16.32;43.90
70437;BME280;57877;39.750;-104.894;2023-08-08T11:33:57;83870.16;;;16.39;43.77
70437;BME280;57877;39.750;-104.894;2023-08-08T11:36:21;83869.92;;;16.66;43.53
70437;BME280;57877;39.750;-104.894;2023-08-08T11:38:47;83873.58;;;16.96;43.61
70437;BME280;57877;39.750;-104.894;2023-08-08T11:41:11;83873.63;;;16.44;43.55
70437;BME280;57877;39.750;-104.894;2023-08-08T11:43:36;83878.05;;;16.84;43.15
70437;BME280;57877;39.750;-104.894;2023-08-08T11:46:01;83874.14;;;16.58;43.59
70437;BME280;57877;39.750;-104.894;2023-08-08T11:48:27;83871.56;;;16.61;43.47
70437;BME280;57877;39.750;-104.894;2023-08-08T11:50:53;83870.38;;;16.59;43.24
70437;BME280;57877;39.750;-104.894;2023-08-08T11:53:19;83863.77;;;16.56;43.48
70437;BME280;57877;39.750;-104.894;2023-08-08T11:55:42;83854.91;;;16.16;44.18
70437;BME280;57877;39.750;-104.894;2023-08-08T11:58:12;83851.40;;;16.21;44.46
70437;BME280;57877;39.750;-104.894;2023-08-08T12:00:32;83848.45;;;16.31;44.14
70437;BME280;57877;39.750;-104.894;2023-08-08T12:02:58;83855.16;;;16.55;43.81
70437;BME280;57877;39.750;-104.894;2023-08-08T12:05:22;83861.17;;;16.75;43.73
70437;BME280;57877;39.750;-104.894;2023-08-08T12:07:48;83873.58;;;16.68;43.70
70437;BME280;57877;39.750;-104.894;2023-08-08T12:10:16;83876.32;;;16.94;43.27
70437;BME280;57877;39.750;-104.894;2023-08-08T12:12:37;83868.56;;;16.51;43.41
70437;BME280;57877;39.750;-104.894;2023-08-08T12:15:06;83859.60;;;16.37;43.74
70437;BME280;57877;39.750;-104.894;2023-08-08T12:17:28;83850.53;;;16.37;43.95
70437;BME280;57877;39.750;-104.894;2023-08-08T12:19:53;83850.49;;;16.37;43.60
70437;BME280;57877;39.750;-104.894;2023-08-08T12:22:18;83862.00;;;16.64;43.65
70437;BME280;57877;39.750;-104.894;2023-08-08T12:24:43;83870.92;;;16.56;43.51